Time;durP1;ratioP1;P1;durP2;ratioP2;P2;SDS_P1;SDS_P2;PMS_P1;PMS_P2;Temp;Humidity;BMP_temperature;BMP_pressure;BME280_temperature;BME280_humidity;BME280_pressure;Samples;Min_cycle;Max_cycle;Signal;HPM_P1;HPM_P2
2022/06/30 00:00:09;;;;;;;1.15;1.13;;;17.50;12.70;;;;;;5083441;28;34129;-73
2022/06/30 00:02:35;;;;;;;1.20;1.10;;;17.50;12.70;;;;;;5083364;28;34301;-73
2022/06/30 00:05:01;;;;;;;3.00;1.40;;;17.50;12.80;;;;;;5083735;28;34197;-73
2022/06/30 00:07:27;;;;;;;1.40;1.30;;;17.40;12.80;;;;;;5084549;28;34236;-73
2022/06/30 00:09:53;;;;;;;2.55;1.27;;;17.40;12.90;;;;;;5083200;28;34165;-73
2022/06/30 00:12:18;;;;;;;2.50;1.40;;;17.30;12.90;;;;;;5083340;28;34336;-74
2022/06/30 00:14:44;;;;;;;6.07;1.38;;;17.30;12.90;;;;;;5084744;28;34305;-73
2022/06/30 00:17:11;;;;;;;1.98;1.55;;;17.20;12.90;;;;;;5092603;28;35594;-73
2022/06/30 00:19:37;;;;;;;4.30;1.60;;;17.10;13.10;;;;;;5105125;28;34055;-73
2022/06/30 00:22:06;;;;;;;1.90;1.73;;;17.10;13.10;;;;;;5104841;28;34090;-73
2022/06/30 00:24:33;;;;;;;1.75;1.65;;;17.00;13.10;;;;;;5103701;28;34431;-73
2022/06/30 00:26:59;;;;;;;1.67;1.58;;;17.00;13.40;;;;;;5103573;28;35524;-73
2022/06/30 00:29:25;;;;;;;2.50;1.50;;;17.00;13.40;;;;;;5103286;28;34172;-73
2022/06/30 00:31:51;;;;;;;2.13;1.75;;;16.90;13.50;;;;;;5103202;28;34358;-73
2022/06/30 00:34:16;;;;;;;1.52;1.42;;;16.90;13.50;;;;;;5103375;28;34400;-73
2022/06/30 00:36:43;;;;;;;1.58;1.42;;;16.70;13.50;;;;;;5086431;28;35572;-73
2022/06/30 00:39:10;;;;;;;1.50;1.38;;;16.70;13.60;;;;;;5104630;28;34121;-74
2022/06/30 00:41:40;;;;;;;1.30;1.20;;;16.70;13.70;;;;;;5073318;28;34225;-73
2022/06/30 00:44:07;;;;;;;1.70;1.52;;;16.60;14.00;;;;;;5062605;28;34056;-73
2022/06/30 00:46:34;;;;;;;1.50;1.40;;;16.50;13.80;;;;;;5071918;28;34060;-73
2022/06/30 00:49:01;;;;;;;2.78;1.58;;;16.40;13.90;;;;;;5085632;28;34244;-73
2022/06/30 00:51:26;;;;;;;2.38;1.50;;;16.40;14.00;;;;;;5082556;28;34669;-74
2022/06/30 00:53:55;;;;;;;1.98;1.55;;;16.40;14.10;;;;;;5082904;28;34494;-73
2022/06/30 00:56:22;;;;;;;1.73;1.63;;;16.40;14.20;;;;;;5082251;28;35582;-72
2022/06/30 00:58:50;;;;;;;3.95;1.60;;;16.40;14.20;;;;;;5082919;28;34144;-73
2022/06/30 01:01:17;;;;;;;2.30;1.48;;;16.30;14.40;;;;;;5085291;28;34269;-73
2022/06/30 01:03:44;;;;;;;1.55;1.45;;;16.30;14.40;;;;;;5082321;28;34269;-73
2022/06/30 01:06:10;;;;;;;2.30;1.52;;;16.30;14.50;;;;;;5053833;28;35997;-73
2022/06/30 01:08:36;;;;;;;1.65;1.55;;;16.20;14.40;;;;;;5061942;28;34128;-73
2022/06/30 01:13:45;;;;;;;1.75;1.65;;;16.10;14.70;;;;;;5103143;28;34240;-73
2022/06/30 01:16:11;;;;;;;3.17;1.70;;;16.10;14.70;;;;;;5095315;28;36830;-73
2022/06/30 01:18:38;;;;;;;1.70;1.60;;;16.10;14.80;;;;;;5082536;28;34014;-73
2022/06/30 01:21:04;;;;;;;1.60;1.50;;;16.00;14.80;;;;;;5094039;28;34227;-73
2022/06/30 01:23:30;;;;;;;1.83;1.63;;;16.00;14.80;;;;;;5102571;28;34543;-73
2022/06/30 01:25:55;;;;;;;1.45;1.35;;;16.00;14.80;;;;;;5068725;28;36601;-73
2022/06/30 01:28:22;;;;;;;1.42;1.30;;;15.90;15.00;;;;;;5102467;28;34164;-73
2022/06/30 01:30:48;;;;;;;5.80;1.48;;;15.90;15.10;;;;;;5102871;28;34356;-73
2022/06/30 01:33:14;;;;;;;1.75;1.50;;;15.90;15.10;;;;;;5064768;28;34249;-74
2022/06/30 01:35:40;;;;;;;3.42;1.58;;;15.90;15.10;;;;;;5061437;28;35752;-73
2022/06/30 01:38:06;;;;;;;1.60;1.50;;;15.80;15.10;;;;;;5062005;28;34193;-73
2022/06/30 01:40:35;;;;;;;1.50;1.40;;;15.80;15.10;;;;;;5070496;28;34444;-73
2022/06/30 01:43:03;;;;;;;1.55;1.33;;;15.80;15.20;;;;;;5063636;28;34123;-73
2022/06/30 01:45:29;;;;;;;1.73;1.60;;;15.80;15.10;;;;;;5067251;28;36638;-74
2022/06/30 01:47:55;;;;;;;2.72;1.45;;;15.80;15.20;;;;;;5102565;28;34156;-74
2022/06/30 01:50:24;;;;;;;1.70;1.40;;;15.80;15.20;;;;;;5085543;28;34265;-74
2022/06/30 01:52:51;;;;;;;3.67;1.40;;;15.80;15.50;;;;;;5062051;28;34240;-74
2022/06/30 01:55:17;;;;;;;2.00;1.27;;;15.70;15.20;;;;;;5063574;28;36307;-74
2022/06/30 01:57:43;;;;;;;1.65;1.52;;;15.70;15.20;;;;;;5102573;28;34399;-74
2022/06/30 02:00:13;;;;;;;1.50;1.40;;;15.60;15.20;;;;;;5085300;28;34247;-74
2022/06/30 02:02:38;;;;;;;5.75;1.80;;;15.60;15.40;;;;;;5085924;28;34405;-74
2022/06/30 02:05:05;;;;;;;1.65;1.55;;;15.60;15.30;;;;;;5085117;28;35806;-73
2022/06/30 02:07:32;;;;;;;4.38;1.60;;;15.50;15.50;;;;;;5101760;28;34162;-74
2022/06/30 02:09:58;;;;;;;3.80;1.30;;;15.50;15.50;;;;;;5085517;28;34190;-74
2022/06/30 02:15:11;;;;;;;1.75;1.60;;;15.40;15.50;;;;;;5105613;28;34200;-74
2022/06/30 02:17:37;;;;;;;2.08;1.60;;;15.30;15.40;;;;;;5088988;28;34030;-74
2022/06/30 02:20:05;;;;;;;1.30;1.20;;;15.30;15.50;;;;;;5089922;28;34289;-74
2022/06/30 02:22:30;;;;;;;1.65;1.55;;;15.30;15.50;;;;;;5103191;28;34335;-74
2022/06/30 02:24:56;;;;;;;1.70;1.60;;;15.20;15.50;;;;;;5106359;28;34278;-74
2022/06/30 02:27:24;;;;;;;1.80;1.70;;;15.20;15.60;;;;;;5077598;28;34186;-74
2022/06/30 02:29:51;;;;;;;4.78;1.70;;;15.20;15.60;;;;;;5084929;28;34239;-74
2022/06/30 02:32:18;;;;;;;1.67;1.58;;;15.20;15.70;;;;;;5094746;28;34108;-74
2022/06/30 02:34:44;;;;;;;3.40;1.70;;;15.10;15.70;;;;;;5105236;28;35534;-74
2022/06/30 02:37:10;;;;;;;2.20;1.63;;;15.10;15.70;;;;;;5099456;28;34122;-74
2022/06/30 02:39:37;;;;;;;3.85;1.63;;;15.10;15.80;;;;;;5084464;28;34318;-74
2022/06/30 02:42:03;;;;;;;1.95;1.65;;;15.00;15.80;;;;;;5101321;28;34303;-74
2022/06/30 02:44:29;;;;;;;3.28;1.70;;;14.90;15.80;;;;;;5104890;28;35655;-74
2022/06/30 02:46:55;;;;;;;2.00;1.55;;;15.00;15.90;;;;;;5106531;28;34161;-74
2022/06/30 02:49:22;;;;;;;1.80;1.60;;;14.90;16.10;;;;;;5104663;28;34186;-74
2022/06/30 02:51:49;;;;;;;2.30;1.70;;;14.90;16.10;;;;;;5105141;28;33999;-74
2022/06/30 02:54:15;;;;;;;3.45;1.52;;;14.90;16.20;;;;;;5104489;27;36779;-74
2022/06/30 02:56:41;;;;;;;1.77;1.60;;;14.90;16.80;;;;;;5091512;28;34299;-74
2022/06/30 02:59:08;;;;;;;1.73;1.63;;;14.80;16.40;;;;;;5084481;28;34347;-74
2022/06/30 03:01:34;;;;;;;2.88;1.80;;;14.80;16.40;;;;;;5081128;28;34575;-74
2022/06/30 03:04:02;;;;;;;3.03;1.70;;;14.80;16.50;;;;;;5052772;28;35962;-74
2022/06/30 03:06:30;;;;;;;3.00;1.67;;;14.80;16.50;;;;;;5085962;27;34118;-74
2022/06/30 03:08:57;;;;;;;1.95;1.50;;;14.80;16.70;;;;;;5064060;28;34099;-74
2022/06/30 03:11:24;;;;;;;2.47;1.85;;;14.80;16.70;;;;;;5088239;28;34177;-74
2022/06/30 03:13:50;;;;;;;3.33;1.67;;;14.80;16.70;;;;;;5087665;28;35529;-74
2022/06/30 03:16:17;;;;;;;1.50;1.40;;;14.70;16.70;;;;;;5105367;27;34047;-74
2022/06/30 03:18:44;;;;;;;2.28;1.67;;;14.70;16.80;;;;;;5088061;28;34132;-74
2022/06/30 03:21:10;;;;;;;1.65;1.52;;;14.70;16.70;;;;;;5087813;28;34108;-74
2022/06/30 03:23:36;;;;;;;1.85;1.60;;;14.70;16.80;;;;;;5087102;28;35670;-74
2022/06/30 03:26:04;;;;;;;3.38;1.63;;;14.60;16.70;;;;;;5103768;28;34367;-74
2022/06/30 03:28:30;;;;;;;1.50;1.40;;;14.60;16.70;;;;;;5104305;28;34385;-74
2022/06/30 03:30:56;;;;;;;1.67;1.58;;;14.60;16.80;;;;;;5097281;28;34085;-74
2022/06/30 03:33:23;;;;;;;1.65;1.55;;;14.50;16.70;;;;;;5085238;28;34503;-74
2022/06/30 03:35:48;;;;;;;2.38;1.55;;;14.50;16.90;;;;;;5084202;28;34204;-74
2022/06/30 03:38:15;;;;;;;2.05;1.73;;;14.50;17.00;;;;;;5083825;28;34251;-73
2022/06/30 03:40:41;;;;;;;4.10;1.63;;;14.40;16.90;;;;;;5084951;28;34348;-74
2022/06/30 03:43:08;;;;;;;2.08;1.50;;;14.40;17.10;;;;;;5083697;28;36466;-74
2022/06/30 03:45:34;;;;;;;2.28;1.58;;;14.40;17.10;;;;;;5068962;28;34217;-74
2022/06/30 03:48:02;;;;;;;1.73;1.63;;;14.40;17.20;;;;;;5063504;28;34172;-73
2022/06/30 03:50:29;;;;;;;1.70;1.40;;;14.40;17.30;;;;;;5047035;28;34126;-74
2022/06/30 03:52:54;;;;;;;1.92;1.52;;;14.40;17.30;;;;;;5080374;28;35598;-73
2022/06/30 03:55:20;;;;;;;1.65;1.52;;;14.40;17.30;;;;;;5064066;28;34130;-73
2022/06/30 03:57:46;;;;;;;3.28;1.83;;;14.40;17.30;;;;;;5083626;28;34095;-73
2022/06/30 04:00:13;;;;;;;3.58;1.80;;;14.40;17.30;;;;;;5083692;28;34495;-73
2022/06/30 04:02:39;;;;;;;2.35;1.75;;;14.40;17.40;;;;;;5069390;28;35611;-73
2022/06/30 04:05:05;;;;;;;1.55;1.45;;;14.40;17.40;;;;;;5063092;28;34395;-73
2022/06/30 04:07:31;;;;;;;2.38;1.85;;;14.40;17.40;;;;;;5087817;28;34397;-74
2022/06/30 04:09:57;;;;;;;2.28;1.73;;;14.40;17.60;;;;;;5105037;28;34297;-73
2022/06/30 04:12:23;;;;;;;3.83;2.00;;;14.50;17.60;;;;;;5103744;28;35616;-73
2022/06/30 04:14:49;;;;;;;2.65;1.75;;;14.50;17.60;;;;;;5103859;28;34163;-73
2022/06/30 04:17:15;;;;;;;1.67;1.58;;;14.50;17.60;;;;;;5103538;28;34160;-74
2022/06/30 04:19:41;;;;;;;1.50;1.40;;;14.50;17.60;;;;;;5086323;28;34410;-74
2022/06/30 04:22:07;;;;;;;2.63;1.70;;;14.50;17.60;;;;;;5079291;28;34165;-73
2022/06/30 04:24:33;;;;;;;1.90;1.70;;;14.50;17.60;;;;;;5070350;28;34290;-73
2022/06/30 04:26:59;;;;;;;1.90;1.80;;;14.60;17.70;;;;;;5046401;28;34157;-73
2022/06/30 04:29:24;;;;;;;2.22;2.03;;;14.60;17.80;;;;;;5078933;28;34218;-74
2022/06/30 04:34:32;;;;;;;2.13;1.95;;;14.60;18.00;;;;;;5063595;28;34156;-73
2022/06/30 04:36:58;;;;;;;2.00;1.83;;;14.70;17.80;;;;;;5081934;28;34205;-73
2022/06/30 04:39:24;;;;;;;2.67;1.92;;;14.70;17.80;;;;;;5084514;28;34138;-74
2022/06/30 04:41:50;;;;;;;2.30;1.80;;;14.70;17.80;;;;;;5087274;28;35640;-73
2022/06/30 04:44:16;;;;;;;3.42;2.10;;;14.70;17.90;;;;;;5074233;28;34129;-73
2022/06/30 04:46:42;;;;;;;2.35;2.10;;;14.80;17.90;;;;;;5073896;28;33989;-74
2022/06/30 04:49:08;;;;;;;4.00;1.77;;;14.70;17.90;;;;;;5067595;28;34076;-73
2022/06/30 04:51:34;;;;;;;2.33;2.13;;;14.70;18.00;;;;;;5081841;28;35568;-74
2022/06/30 04:54:00;;;;;;;2.20;1.98;;;14.80;18.00;;;;;;5092577;27;34142;-74
2022/06/30 04:56:25;;;;;;;2.50;1.85;;;14.80;18.10;;;;;;5079284;28;34198;-74
2022/06/30 04:58:51;;;;;;;3.47;1.75;;;14.80;18.10;;;;;;5081911;28;34276;-74
2022/06/30 05:01:17;;;;;;;2.63;1.90;;;14.80;18.30;;;;;;5078189;28;36312;-74
2022/06/30 05:03:45;;;;;;;1.75;1.65;;;14.90;18.40;;;;;;5066600;28;34395;-74
2022/06/30 05:06:10;;;;;;;2.97;2.17;;;14.90;18.40;;;;;;5062306;28;34228;-74
2022/06/30 05:08:55;;;;;;;2.92;2.17;;;14.90;18.50;;;;;;5062304;28;34491;-74
2022/06/30 05:11:21;;;;;;;2.42;1.70;;;15.00;18.50;;;;;;5071882;28;36765;-73
2022/06/30 05:13:47;;;;;;;2.20;2.08;;;15.10;18.60;;;;;;5082483;28;34388;-73
2022/06/30 05:16:13;;;;;;;2.50;2.30;;;15.20;18.70;;;;;;5082840;28;34162;-73
2022/06/30 05:18:39;;;;;;;3.75;2.10;;;15.40;18.80;;;;;;5066003;28;34439;-74
2022/06/30 05:21:04;;;;;;;2.50;2.30;;;15.50;18.70;;;;;;5088965;28;35646;-75
2022/06/30 05:23:30;;;;;;;3.33;2.50;;;15.80;18.70;;;;;;5102110;28;34235;-74
2022/06/30 05:28:37;;;;;;;2.75;2.00;;;17.00;17.50;;;;;;5082525;28;34108;-74
2022/06/30 05:31:03;;;;;;;2.17;1.98;;;18.00;16.00;;;;;;5089898;28;36709;-74
2022/06/30 05:33:29;;;;;;;2.20;2.00;;;18.90;14.60;;;;;;5102634;28;34320;-74
2022/06/30 05:35:57;;;;;;;3.78;2.00;;;19.90;13.40;;;;;;5102654;28;34224;-75
2022/06/30 05:38:23;;;;;;;3.75;1.70;;;20.80;12.20;;;;;;5086501;28;34203;-75
2022/06/30 05:40:49;;;;;;;3.78;1.80;;;21.60;10.80;;;;;;5081729;28;35874;-75
2022/06/30 05:43:17;;;;;;;3.30;1.73;;;22.40;10.00;;;;;;5094149;28;34328;-75
2022/06/30 05:45:46;;;;;;;2.58;1.55;;;23.00;8.60;;;;;;5066006;28;34148;-75
2022/06/30 05:48:12;;;;;;;2.03;1.70;;;23.40;7.70;;;;;;5080060;28;34498;-75
2022/06/30 05:50:38;;;;;;;1.92;1.40;;;23.90;7.40;;;;;;5082265;28;36422;-75
2022/06/30 05:53:04;;;;;;;2.65;1.65;;;24.40;6.70;;;;;;5082412;28;34266;-75
2022/06/30 05:55:30;;;;;;;1.70;1.60;;;25.00;6.20;;;;;;5083019;28;34488;-75
2022/06/30 05:58:01;;;;;;;3.42;1.58;;;25.60;5.40;;;;;;5085427;28;34372;-75
2022/06/30 06:00:29;;;;;;;3.92;1.60;;;26.20;4.60;;;;;;5066578;28;34496;-75
2022/06/30 06:02:55;;;;;;;1.67;1.58;;;26.70;4.40;;;;;;5048467;28;34266;-75
2022/06/30 06:05:21;;;;;;;2.47;1.48;;;27.20;3.80;;;;;;5078784;28;34356;-75
2022/06/30 06:07:48;;;;;;;2.33;1.55;;;27.60;3.00;;;;;;5085358;28;34073;-75
2022/06/30 06:10:14;;;;;;;3.03;1.60;;;27.90;2.40;;;;;;5085100;28;35509;-75
2022/06/30 06:12:43;;;;;;;3.67;1.40;;;28.10;2.20;;;;;;5068525;28;34128;-75
2022/06/30 06:15:14;;;;;;;2.22;1.40;;;28.40;1.50;;;;;;5068118;28;34294;-75
2022/06/30 06:17:44;;;;;;;1.63;1.50;;;28.50;1.00;;;;;;5065323;28;34134;-75
2022/06/30 06:20:12;;;;;;;1.40;1.30;;;28.60;1.00;;;;;;5065756;28;34142;-75
2022/06/30 06:22:39;;;;;;;4.00;1.75;;;28.70;1.00;;;;;;5065000;28;34167;-75
2022/06/30 06:25:06;;;;;;;3.33;1.63;;;29.00;1.00;;;;;;5060266;28;34170;-75
2022/06/30 06:27:32;;;;;;;2.42;1.65;;;29.30;1.00;;;;;;5064199;28;34636;-75
2022/06/30 06:29:58;;;;;;;2.60;1.48;;;29.40;1.00;;;;;;5064834;28;36035;-76
2022/06/30 06:32:24;;;;;;;2.20;1.58;;;29.50;1.00;;;;;;5064830;28;34290;-75
2022/06/30 06:34:50;;;;;;;2.13;1.40;;;29.20;1.00;;;;;;5066414;28;34180;-75
2022/06/30 06:37:17;;;;;;;2.22;1.38;;;28.90;1.00;;;;;;5083147;28;34399;-76
2022/06/30 06:39:43;;;;;;;1.70;1.60;;;28.60;1.00;;;;;;5064080;28;36070;-75
2022/06/30 06:42:08;;;;;;;1.98;1.55;;;28.40;1.00;;;;;;5065006;28;34233;-75
2022/06/30 06:44:34;;;;;;;1.50;1.40;;;28.30;1.00;;;;;;5072818;28;34114;-76
2022/06/30 06:47:00;;;;;;;3.65;1.42;;;28.30;1.00;;;;;;5091977;28;34376;-77
2022/06/30 06:49:27;;;;;;;2.00;1.40;;;28.20;1.00;;;;;;5067558;28;35577;-75
2022/06/30 06:51:53;;;;;;;4.47;1.60;;;28.10;1.00;;;;;;5085015;28;34262;-76
2022/06/30 06:54:19;;;;;;;2.80;2.00;;;28.00;1.10;;;;;;5084871;28;34228;-77
2022/06/30 06:56:45;;;;;;;3.05;1.48;;;27.90;1.00;;;;;;5097088;28;34109;-76
2022/06/30 06:59:11;;;;;;;2.15;1.60;;;27.90;1.00;;;;;;5103671;27;35782;-75
2022/06/30 07:01:37;;;;;;;2.10;1.48;;;28.00;1.10;;;;;;5072019;28;34179;-76
2022/06/30 07:04:03;;;;;;;1.70;1.60;;;28.00;1.10;;;;;;5064730;28;34432;-75
2022/06/30 07:06:29;;;;;;;1.73;1.52;;;27.90;1.00;;;;;;5084966;28;34755;-76
2022/06/30 07:08:55;;;;;;;1.50;1.40;;;27.90;1.00;;;;;;5088144;28;35652;-75
2022/06/30 07:11:21;;;;;;;5.57;1.40;;;27.80;1.00;;;;;;5075282;28;34190;-75
2022/06/30 07:13:47;;;;;;;2.80;1.60;;;27.90;1.00;;;;;;5051999;28;34370;-75
2022/06/30 07:16:13;;;;;;;3.50;1.50;;;27.90;1.10;;;;;;5074994;28;34191;-75
2022/06/30 07:18:38;;;;;;;1.70;1.60;;;27.90;1.10;;;;;;5060094;28;35927;-75
2022/06/30 07:21:04;;;;;;;3.03;1.48;;;27.90;1.20;;;;;;5084172;28;34047;-75
2022/06/30 07:23:30;;;;;;;2.05;1.65;;;28.00;1.30;;;;;;5077541;28;34205;-76
2022/06/30 07:25:57;;;;;;;2.92;1.55;;;28.00;1.00;;;;;;5083023;28;34300;-75
2022/06/30 07:28:23;;;;;;;4.45;1.90;;;28.10;1.20;;;;;;5069672;28;35727;-76
2022/06/30 07:30:49;;;;;;;1.75;1.65;;;28.20;1.10;;;;;;5064049;28;34128;-76
2022/06/30 07:33:17;;;;;;;1.65;1.40;;;28.20;1.00;;;;;;5046976;28;34266;-76
2022/06/30 07:35:43;;;;;;;2.45;1.63;;;28.40;1.00;;;;;;5082234;28;34256;-76
2022/06/30 07:38:09;;;;;;;3.90;1.45;;;28.40;1.00;;;;;;5105464;28;34261;-76
2022/06/30 07:40:35;;;;;;;4.72;1.67;;;28.50;1.00;;;;;;5103793;28;34115;-75
2022/06/30 07:43:01;;;;;;;1.73;1.63;;;28.70;1.00;;;;;;5104088;28;34291;-76
2022/06/30 07:45:27;;;;;;;2.22;1.52;;;29.10;1.00;;;;;;5102171;28;34205;-77
2022/06/30 07:47:53;;;;;;;2.40;1.60;;;29.40;1.00;;;;;;5090411;28;35560;-77
2022/06/30 07:50:20;;;;;;;1.60;1.50;;;29.70;1.00;;;;;;5067107;28;34293;-77
2022/06/30 07:52:46;;;;;;;1.75;1.50;;;30.00;1.00;;;;;;5070887;28;34199;-76
2022/06/30 07:55:12;;;;;;;5.22;1.42;;;30.10;1.00;;;;;;5065062;28;34256;-76
2022/06/30 07:57:45;;;;;;;5.28;1.73;;;30.40;1.00;;;;;;5079224;28;37192;-76
2022/06/30 08:00:12;;;;;;;1.75;1.52;;;30.50;1.00;;;;;;5057982;28;34475;-76
2022/06/30 08:02:39;;;;;;;4.63;1.67;;;30.40;1.00;;;;;;5105075;27;34144;-76
2022/06/30 08:05:06;;;;;;;3.78;1.75;;;30.30;1.00;;;;;;5070658;28;34606;-76
2022/06/30 08:07:32;;;;;;;2.70;1.67;;;30.20;1.00;;;;;;5087625;28;35611;-76
2022/06/30 08:09:59;;;;;;;4.43;1.83;;;30.30;1.00;;;;;;5087722;28;34433;-76
2022/06/30 08:12:25;;;;;;;2.75;1.58;;;30.40;1.00;;;;;;5085167;28;34118;-77
2022/06/30 08:14:51;;;;;;;4.38;1.60;;;30.60;1.00;;;;;;5083350;28;34130;-77
2022/06/30 08:17:17;;;;;;;3.15;1.70;;;30.70;1.00;;;;;;5097575;28;34225;-77
2022/06/30 08:19:43;;;;;;;1.80;1.63;;;30.80;1.00;;;;;;5084166;28;34396;-77
2022/06/30 08:22:09;;;;;;;4.18;1.60;;;31.00;1.00;;;;;;5066059;28;34336;-77
2022/06/30 08:24:35;;;;;;;1.45;1.35;;;31.10;1.00;;;;;;5083801;28;34164;-77
2022/06/30 08:27:02;;;;;;;2.47;1.70;;;31.20;1.00;;;;;;5079857;28;34450;-76
2022/06/30 08:29:32;;;;;;;1.50;1.40;;;31.10;1.00;;;;;;5076029;28;34454;-76
2022/06/30 08:32:01;;;;;;;3.28;1.60;;;31.00;1.00;;;;;;5075501;28;34143;-79
2022/06/30 08:34:28;;;;;;;2.72;1.40;;;31.20;1.00;;;;;;5063668;28;34324;-78
2022/06/30 08:36:55;;;;;;;2.47;1.40;;;31.30;1.00;;;;;;5060180;28;34398;-79
2022/06/30 08:42:02;;;;;;;3.83;1.52;;;31.60;1.00;;;;;;5103682;28;34118;-75
2022/06/30 08:44:33;;;;;;;2.40;1.75;;;31.70;1.00;;;;;;5062993;28;34190;-76
2022/06/30 08:46:59;;;;;;;2.03;1.40;;;31.90;1.00;;;;;;5083592;28;35542;-78
2022/06/30 08:49:26;;;;;;;2.58;1.50;;;32.00;1.00;;;;;;5077899;28;34265;-77
2022/06/30 08:51:55;;;;;;;2.90;1.70;;;32.20;1.00;;;;;;5052568;28;34469;-77
2022/06/30 08:54:22;;;;;;;1.80;1.27;;;32.30;1.00;;;;;;5087525;28;34037;-77
2022/06/30 08:56:50;;;;;;;1.80;1.70;;;32.20;1.00;;;;;;5049728;28;36231;-78
2022/06/30 08:59:17;;;;;;;1.55;1.45;;;32.40;1.00;;;;;;5065942;28;34349;-77
2022/06/30 09:01:44;;;;;;;1.60;1.33;;;32.40;1.00;;;;;;5066215;28;34129;-78
2022/06/30 09:04:11;;;;;;;2.75;1.58;;;32.30;1.00;;;;;;5072768;28;34517;-77
2022/06/30 09:06:37;;;;;;;1.50;1.40;;;32.30;1.00;;;;;;5081948;28;36536;-77
2022/06/30 09:09:05;;;;;;;1.90;1.52;;;32.20;1.00;;;;;;5083613;28;35115;-77
2022/06/30 09:11:49;;;;;;;2.20;1.60;;;32.30;1.00;;;;;;5085883;27;34207;-76
2022/06/30 09:14:46;;;;;;;4.05;1.80;;;32.70;1.00;;;;;;5076165;28;34470;-77
2022/06/30 09:17:17;;;;;;;2.75;1.60;;;32.90;1.00;;;;;;5103001;27;36839;-78
2022/06/30 09:19:54;;;;;;;1.95;1.63;;;33.10;1.00;;;;;;5090437;28;34284;-77
2022/06/30 09:22:23;;;;;;;1.65;1.35;;;33.20;1.00;;;;;;5081218;27;34252;-77
2022/06/30 09:24:59;;;;;;;2.22;1.60;;;33.10;1.00;;;;;;5077130;28;34076;-78
2022/06/30 09:27:29;;;;;;;2.50;1.60;;;33.10;1.00;;;;;;5066091;28;35657;-77
2022/06/30 09:30:09;;;;;;;2.28;1.40;;;33.20;1.00;;;;;;5067113;28;34406;-78
2022/06/30 09:32:52;;;;;;;1.83;1.40;;;33.00;1.00;;;;;;5066200;28;34085;-77
2022/06/30 09:35:22;;;;;;;1.60;1.50;;;32.90;1.00;;;;;;5057927;28;34524;-77
2022/06/30 09:38:08;;;;;;;3.25;1.77;;;32.80;1.00;;;;;;5069721;28;36007;-76
2022/06/30 09:40:37;;;;;;;2.42;1.40;;;32.70;1.00;;;;;;5091806;28;34284;-77
2022/06/30 09:43:05;;;;;;;2.55;1.70;;;32.80;1.00;;;;;;5067171;28;34256;-77
2022/06/30 09:45:35;;;;;;;4.00;1.70;;;32.90;1.00;;;;;;5077316;28;34085;-77
2022/06/30 09:48:01;;;;;;;3.97;1.90;;;33.00;1.00;;;;;;5105784;27;35620;-78
2022/06/30 09:50:27;;;;;;;4.22;1.75;;;33.30;1.00;;;;;;5082709;28;34304;-77
2022/06/30 09:53:10;;;;;;;3.08;1.80;;;33.40;1.00;;;;;;5065546;28;34199;-77
2022/06/30 09:55:40;;;;;;;2.20;1.60;;;33.40;1.00;;;;;;5084744;28;34083;-79
2022/06/30 09:58:07;;;;;;;1.70;1.52;;;33.40;1.00;;;;;;5100875;28;34381;-76
2022/06/30 10:00:50;;;;;;;1.73;1.48;;;33.40;1.00;;;;;;5084890;28;34281;-76
2022/06/30 10:03:18;;;;;;;2.42;1.60;;;33.70;1.00;;;;;;5064501;28;34092;-77
2022/06/30 10:05:45;;;;;;;5.65;1.75;;;33.70;1.00;;;;;;5053103;28;34663;-78
2022/06/30 10:08:13;;;;;;;1.77;1.60;;;33.80;1.00;;;;;;5095556;28;35882;-76
2022/06/30 10:10:41;;;;;;;3.70;1.48;;;33.90;1.00;;;;;;5073953;28;34123;-76
2022/06/30 10:13:13;;;;;;;2.60;1.58;;;34.00;1.00;;;;;;5082184;28;34048;-77
2022/06/30 10:15:40;;;;;;;2.53;1.73;;;34.30;1.00;;;;;;5092345;28;34137;-78
2022/06/30 10:18:07;;;;;;;3.50;1.77;;;34.50;1.00;;;;;;5080319;28;34323;-77
2022/06/30 10:20:38;;;;;;;1.35;1.25;;;34.50;1.00;;;;;;5079339;28;34068;-77
2022/06/30 10:23:07;;;;;;;1.52;1.42;;;34.60;1.00;;;;;;5078498;28;34311;-77
2022/06/30 10:25:33;;;;;;;2.75;1.60;;;34.80;1.00;;;;;;5080098;28;34248;-77
2022/06/30 10:27:59;;;;;;;1.33;1.23;;;34.80;1.00;;;;;;5080764;28;36641;-78
2022/06/30 10:30:35;;;;;;;1.67;1.30;;;34.70;1.00;;;;;;5095134;28;34327;-77
2022/06/30 10:33:10;;;;;;;1.50;1.40;;;34.70;1.00;;;;;;5073271;28;34048;-77
2022/06/30 10:35:44;;;;;;;1.67;1.50;;;34.30;1.00;;;;;;5072737;28;34299;-77
2022/06/30 10:38:33;;;;;;;4.88;1.75;;;34.20;1.00;;;;;;5070953;28;35581;-77
2022/06/30 10:41:12;;;;;;;3.42;1.55;;;34.20;1.00;;;;;;5062159;28;34476;-77
2022/06/30 10:44:08;;;;;;;2.60;1.52;;;34.40;1.00;;;;;;5069832;28;34104;-77
2022/06/30 10:46:52;;;;;;;2.47;1.40;;;34.20;1.00;;;;;;5074076;28;34189;-77
2022/06/30 10:49:18;;;;;;;2.30;1.60;;;33.80;1.00;;;;;;5056069;28;35989;-76
2022/06/30 10:51:45;;;;;;;1.58;1.48;;;33.50;1.00;;;;;;5087037;28;34290;-77
2022/06/30 10:54:29;;;;;;;2.75;1.70;;;33.40;1.00;;;;;;5067659;28;34265;-77
2022/06/30 10:56:56;;;;;;;1.70;1.60;;;33.40;1.00;;;;;;5073133;28;34426;-77
2022/06/30 10:59:31;;;;;;;2.30;1.40;;;33.20;1.00;;;;;;5080981;28;34764;-77
2022/06/30 11:02:23;;;;;;;1.70;1.60;;;33.30;1.00;;;;;;5055098;28;34196;-77
2022/06/30 11:04:51;;;;;;;2.28;1.80;;;33.50;1.00;;;;;;5084876;28;34410;-77
2022/06/30 11:07:24;;;;;;;2.47;1.38;;;33.70;1.00;;;;;;5083741;28;34498;-77
2022/06/30 11:09:58;;;;;;;3.17;1.50;;;33.90;1.00;;;;;;5081003;28;36196;-77
2022/06/30 11:12:50;;;;;;;2.33;1.55;;;34.10;1.00;;;;;;5083509;28;34149;-77
2022/06/30 11:15:16;;;;;;;3.58;1.40;;;34.20;1.00;;;;;;5076548;28;34170;-76
2022/06/30 11:17:42;;;;;;;4.50;1.50;;;34.20;1.00;;;;;;5068043;28;34012;-77
2022/06/30 11:20:12;;;;;;;1.88;1.40;;;34.30;1.00;;;;;;5085686;28;34265;-77
2022/06/30 11:22:39;;;;;;;1.45;1.35;;;34.40;1.00;;;;;;5058535;28;34247;-79
2022/06/30 11:25:09;;;;;;;1.65;1.52;;;34.80;1.00;;;;;;5090862;28;34238;-77
2022/06/30 11:27:38;;;;;;;2.20;1.30;;;35.10;1.00;;;;;;5069231;28;34559;-77
2022/06/30 11:30:08;;;;;;;1.50;1.40;;;35.40;1.00;;;;;;5083183;28;34572;-77
2022/06/30 11:32:35;;;;;;;3.17;1.33;;;35.40;1.00;;;;;;5085333;28;34202;-77
2022/06/30 11:35:01;;;;;;;3.60;1.35;;;35.10;1.00;;;;;;5085204;28;34353;-78
2022/06/30 11:37:30;;;;;;;1.80;1.38;;;35.00;1.00;;;;;;5076348;28;34032;-77
2022/06/30 11:40:03;;;;;;;4.35;1.33;;;34.90;1.00;;;;;;5079401;28;34592;-77
2022/06/30 11:42:29;;;;;;;1.65;1.35;;;34.80;1.00;;;;;;5072283;28;34091;-77
2022/06/30 11:44:55;;;;;;;1.50;1.40;;;34.70;1.00;;;;;;5070160;28;34164;-77
2022/06/30 11:47:22;;;;;;;1.30;1.20;;;34.70;1.00;;;;;;5066665;28;34127;-77
2022/06/30 11:49:51;;;;;;;1.65;1.02;;;34.60;1.00;;;;;;5093444;28;36379;-77
2022/06/30 11:52:20;;;;;;;1.73;1.30;;;34.60;1.00;;;;;;5070164;28;34174;-76
2022/06/30 11:54:57;;;;;;;2.40;1.20;;;34.60;1.00;;;;;;5056897;28;34151;-78
2022/06/30 11:57:32;;;;;;;2.63;1.20;;;34.70;1.00;;;;;;5082989;28;34122;-76
2022/06/30 12:00:03;;;;;;;2.90;1.30;;;34.80;1.00;;;;;;5066508;28;36561;-77
2022/06/30 12:02:32;;;;;;;2.38;1.30;;;35.10;1.00;;;;;;5085004;28;34123;-77
2022/06/30 12:04:59;;;;;;;1.60;1.10;;;35.20;1.00;;;;;;5082631;28;34310;-78
2022/06/30 12:07:27;;;;;;;1.50;1.20;;;35.30;1.00;;;;;;5085248;28;34154;-77
2022/06/30 12:09:54;;;;;;;1.40;1.30;;;35.20;1.00;;;;;;5089013;28;35778;-77
2022/06/30 12:12:26;;;;;;;1.13;1.02;;;35.10;1.00;;;;;;5094907;28;34016;-77
2022/06/30 12:14:55;;;;;;;1.20;1.15;;;35.10;1.00;;;;;;5067909;28;34322;-77
2022/06/30 12:17:22;;;;;;;2.00;1.27;;;35.00;1.00;;;;;;5077036;28;34242;-77
2022/06/30 12:19:50;;;;;;;1.50;1.40;;;34.90;1.00;;;;;;5077891;28;34081;-77
2022/06/30 12:22:17;;;;;;;3.08;1.10;;;34.90;1.00;;;;;;5071461;28;34382;-77
2022/06/30 12:24:46;;;;;;;1.35;1.00;;;34.80;1.00;;;;;;5084146;28;34192;-77
2022/06/30 12:27:31;;;;;;;5.35;1.08;;;34.70;1.00;;;;;;5063634;28;34212;-77
2022/06/30 12:30:04;;;;;;;5.57;1.20;;;34.70;1.00;;;;;;5088904;28;35725;-78
2022/06/30 12:32:30;;;;;;;0.95;0.95;;;34.40;1.00;;;;;;5067856;28;34002;-77
2022/06/30 12:34:59;;;;;;;1.30;1.10;;;34.40;1.00;;;;;;5096728;28;34009;-79
2022/06/30 12:37:29;;;;;;;1.80;1.08;;;34.50;1.00;;;;;;5083472;28;34098;-77
2022/06/30 12:39:58;;;;;;;1.25;1.00;;;34.60;1.00;;;;;;5082457;28;35856;-76
2022/06/30 12:42:24;;;;;;;6.03;1.05;;;34.60;1.00;;;;;;5076980;28;34283;-77
2022/06/30 12:44:50;;;;;;;2.08;1.05;;;34.70;1.00;;;;;;5064185;28;34219;-77
2022/06/30 12:47:17;;;;;;;2.20;1.40;;;34.80;1.00;;;;;;5067990;28;34386;-78
2022/06/30 12:49:43;;;;;;;1.85;1.27;;;34.90;1.00;;;;;;5083651;28;35619;-78
2022/06/30 12:52:18;;;;;;;1.17;1.08;;;35.00;1.00;;;;;;5077888;28;34160;-78
2022/06/30 12:54:55;;;;;;;2.13;1.08;;;34.80;1.00;;;;;;5079080;28;34045;-77
2022/06/30 12:57:22;;;;;;;2.90;1.60;;;34.70;1.00;;;;;;5081106;28;35240;-77
2022/06/30 12:59:52;;;;;;;3.60;1.60;;;34.50;1.00;;;;;;5079851;28;35921;-76
2022/06/30 13:02:20;;;;;;;2.35;1.42;;;34.30;1.00;;;;;;5082602;28;34372;-77
2022/06/30 13:04:53;;;;;;;1.63;1.42;;;34.20;1.00;;;;;;5063199;28;34512;-77
2022/06/30 13:07:20;;;;;;;2.58;1.38;;;34.20;1.00;;;;;;5063940;28;34037;-77
2022/06/30 13:09:48;;;;;;;3.28;1.20;;;34.00;1.00;;;;;;5074156;28;36071;-77